createdAt,value
2019-02-05T00:01:11.346Z,86.87
2019-02-05T00:06:30.230Z,88.27
2019-02-05T00:11:48.846Z,88.82
2019-02-05T00:17:07.476Z,89.40
2019-02-05T00:22:26.273Z,90.41
2019-02-05T00:27:44.877Z,91.72
2019-02-05T00:33:03.498Z,92.67
2019-02-05T00:38:22.032Z,93.32
2019-02-05T00:43:40.574Z,93.82
2019-02-05T00:48:59.416Z,94.01
2019-02-05T00:54:17.980Z,94.40
2019-02-05T00:59:38.910Z,94.73
2019-02-05T01:04:57.533Z,94.69
2019-02-05T01:10:16.539Z,94.73
2019-02-05T01:15:35.175Z,95.22
2019-02-05T01:20:53.875Z,95.33
2019-02-05T01:26:12.502Z,95.84
2019-02-05T01:31:31.049Z,95.60
2019-02-05T01:36:49.607Z,95.45
2019-02-05T01:42:08.518Z,95.90
2019-02-05T01:47:28.569Z,95.93
2019-02-05T01:52:47.188Z,95.69
2019-02-05T01:58:05.733Z,95.81
2019-02-05T02:03:24.299Z,95.85
2019-02-05T02:08:43.201Z,96.18
2019-02-05T02:14:02.387Z,96.31
2019-02-05T02:19:21.009Z,96.53
2019-02-05T02:24:39.799Z,96.79
2019-02-05T02:29:58.820Z,97.04
2019-02-05T02:35:17.449Z,97.04
2019-02-05T02:40:36.066Z,97.00
2019-02-05T02:45:54.620Z,97.11
2019-02-05T02:51:13.237Z,97.17
2019-02-05T02:56:32.261Z,97.49
2019-02-05T03:01:50.830Z,97.58
2019-02-05T03:07:09.841Z,97.63
2019-02-05T03:12:30.780Z,97.98
2019-02-05T03:17:49.500Z,98.00
2019-02-05T03:23:08.117Z,98.03
2019-02-05T03:28:26.676Z,98.00
2019-02-05T03:33:45.567Z,97.79
2019-02-05T03:39:06.181Z,97.92
2019-02-05T03:44:24.732Z,98.18
2019-02-05T03:49:43.520Z,98.01
2019-02-05T03:55:14.017Z,98.09
2019-02-05T04:00:38.416Z,98.05
2019-02-05T04:06:02.911Z,97.99
2019-02-05T04:11:39.437Z,97.89
2019-02-05T04:17:25.277Z,98.20
2019-02-05T04:22:52.574Z,98.24
2019-02-05T04:28:17.031Z,98.00
2019-02-05T04:34:00.407Z,98.15
2019-02-05T04:39:49.031Z,98.05
2019-02-05T04:45:10.561Z,98.02
2019-02-05T04:50:51.007Z,98.24
2019-02-05T04:56:18.480Z,98.26
2019-02-05T05:01:51.865Z,98.29
2019-02-05T05:07:28.729Z,98.23
2019-02-05T05:12:47.440Z,98.12
2019-02-05T05:18:06.079Z,97.98
2019-02-05T05:23:24.918Z,97.98
2019-02-05T05:28:44.150Z,98.07
2019-02-05T05:34:03.015Z,97.99
2019-02-05T05:39:21.627Z,98.12
2019-02-05T05:44:40.243Z,98.12
2019-02-05T05:49:59.676Z,98.12
2019-02-05T05:55:18.304Z,98.07
2019-02-05T06:00:36.952Z,97.90
2019-02-05T06:05:57.209Z,98.02
2019-02-05T06:11:24.551Z,98.17
2019-02-05T06:16:43.253Z,98.09
2019-02-05T06:22:01.817Z,98.09
2019-02-05T06:27:20.449Z,98.02
2019-02-05T06:32:39.428Z,97.93
2019-02-05T06:37:58.259Z,98.00
2019-02-05T06:43:16.813Z,97.98
2019-02-05T06:48:35.353Z,98.06
2019-02-05T06:53:53.822Z,98.16
2019-02-05T06:59:12.628Z,98.24
2019-02-05T07:04:31.313Z,98.37
2019-02-05T07:09:49.930Z,98.45
2019-02-05T07:15:09.961Z,98.53
2019-02-05T07:20:28.657Z,98.58
2019-02-05T07:25:47.206Z,98.72
2019-02-05T07:31:05.815Z,98.80
2019-02-05T07:36:24.461Z,98.97
2019-02-05T07:41:43.018Z,99.14
2019-02-05T07:47:01.631Z,99.30
2019-02-05T07:52:20.269Z,99.59
2019-02-05T07:57:38.888Z,99.47
2019-02-05T08:02:57.685Z,99.63
2019-02-05T08:08:16.307Z,99.59
2019-02-05T08:13:34.926Z,99.65
2019-02-05T08:18:53.392Z,99.48
2019-02-05T08:24:12.012Z,99.46
2019-02-05T08:29:30.904Z,99.47
2019-02-05T08:34:49.558Z,99.32
2019-02-05T08:40:14.175Z,99.25
2019-02-05T08:45:34.873Z,99.18
2019-02-05T08:50:53.510Z,98.84
2019-02-05T08:56:12.142Z,98.93
2019-02-05T09:01:30.759Z,98.79
2019-02-05T09:06:49.320Z,98.68
2019-02-05T09:12:07.945Z,98.05
2019-02-05T09:17:26.989Z,98.18
2019-02-05T09:22:45.632Z,97.93
2019-02-05T09:28:04.561Z,97.48
2019-02-05T09:33:24.153Z,97.47
2019-02-05T09:38:42.778Z,97.39
2019-02-05T09:44:01.415Z,97.22
2019-02-05T09:49:19.972Z,96.64
2019-02-05T09:54:38.601Z,96.34
2019-02-05T09:59:57.535Z,96.50
2019-02-05T10:05:19.171Z,95.76
2019-02-05T10:10:37.756Z,95.55
2019-02-05T10:15:56.381Z,95.19
2019-02-05T10:21:14.985Z,95.64
2019-02-05T10:26:33.535Z,94.95
2019-02-05T10:31:52.087Z,95.22
2019-02-05T10:37:10.780Z,95.18
2019-02-05T10:42:29.694Z,94.85
2019-02-05T10:47:48.346Z,93.98
2019-02-05T10:53:06.988Z,94.05
2019-02-05T10:58:25.556Z,93.91
2019-02-05T11:03:51.087Z,93.42
2019-02-05T11:09:10.015Z,93.25
2019-02-05T11:14:28.624Z,93.64
2019-02-05T11:19:47.531Z,93.12
2019-02-05T11:25:08.063Z,92.29
2019-02-05T11:30:38.495Z,91.29
2019-02-05T11:35:57.131Z,91.79
2019-02-05T11:41:15.887Z,92.06
2019-02-05T11:46:34.513Z,92.02
2019-02-05T11:51:53.151Z,90.67
2019-02-05T11:57:11.699Z,91.62
2019-02-05T12:02:30.373Z,91.88
2019-02-05T12:07:48.921Z,92.92
2019-02-05T12:13:07.853Z,93.27
2019-02-05T12:18:26.469Z,92.66
2019-02-05T12:23:45.121Z,93.05
2019-02-05T12:29:03.716Z,91.67
2019-02-05T12:34:22.488Z,92.39
2019-02-05T12:39:41.144Z,91.83
2019-02-05T12:44:59.790Z,91.43
2019-02-05T12:50:20.707Z,92.33
2019-02-05T12:55:39.327Z,92.25
2019-02-05T13:00:59.564Z,92.86
2019-02-05T13:06:25.259Z,92.80
2019-02-05T13:11:44.131Z,93.74
2019-02-05T13:17:02.663Z,93.52
2019-02-05T13:22:21.507Z,93.13
2019-02-05T13:27:40.041Z,93.16
2019-02-05T13:32:58.796Z,92.92
2019-02-05T13:38:17.428Z,93.06
2019-02-05T13:43:36.133Z,93.78
2019-02-05T13:48:54.701Z,93.43
2019-02-05T13:54:13.347Z,93.11
2019-02-05T13:59:34.245Z,93.28
2019-02-05T14:04:52.906Z,93.85
2019-02-05T14:10:17.860Z,93.39
2019-02-05T14:15:38.798Z,93.06
2019-02-05T14:20:57.697Z,93.18
2019-02-05T14:26:17.088Z,92.91
2019-02-05T14:31:35.718Z,92.05
2019-02-05T14:36:55.321Z,92.17
2019-02-05T14:42:13.877Z,92.19
2019-02-05T14:47:32.429Z,91.59
2019-02-05T14:53:01.126Z,91.48
2019-02-05T14:58:19.779Z,91.86
2019-02-05T15:03:38.327Z,91.39
2019-02-05T15:08:56.893Z,91.17
2019-02-05T15:14:15.589Z,91.05
2019-02-05T15:19:34.490Z,90.98
2019-02-05T15:24:52.973Z,91.02
2019-02-05T15:30:17.390Z,91.05
2019-02-05T15:35:36.589Z,91.61
2019-02-05T15:40:57.019Z,91.65
2019-02-05T15:46:15.648Z,91.78
2019-02-05T15:51:34.332Z,91.87
2019-02-05T15:56:52.890Z,91.76
2019-02-05T16:02:11.625Z,91.63
2019-02-05T16:07:30.267Z,92.15
2019-02-05T16:12:48.819Z,91.76
2019-02-05T16:18:08.125Z,91.98
2019-02-05T16:23:26.704Z,92.36
2019-02-05T16:28:45.267Z,92.18
2019-02-05T16:34:03.831Z,92.40
2019-02-05T16:39:22.483Z,92.78
2019-02-05T16:44:41.286Z,93.34
2019-02-05T16:50:00.655Z,93.38
2019-02-05T16:55:20.953Z,93.38
2019-02-05T17:00:49.596Z,93.40
2019-02-05T17:06:07.818Z,93.34
2019-02-05T17:11:26.553Z,93.62
2019-02-05T17:16:45.311Z,94.10
2019-02-05T17:22:04.039Z,94.49
2019-02-05T17:27:22.610Z,94.52
2019-02-05T17:32:41.232Z,94.66
2019-02-05T17:37:59.985Z,94.73
2019-02-05T17:43:18.562Z,94.90
2019-02-05T17:48:37.285Z,95.05
2019-02-05T17:53:55.909Z,95.31
2019-02-05T17:59:15.211Z,95.38
2019-02-05T18:04:33.796Z,95.93
2019-02-05T18:09:52.348Z,96.03
2019-02-05T18:15:16.826Z,96.33
2019-02-05T18:20:35.446Z,96.46
2019-02-05T18:25:54.024Z,96.33
2019-02-05T18:31:35.438Z,96.50
2019-02-05T18:36:54.059Z,96.99
2019-02-05T18:42:12.628Z,97.18
2019-02-05T18:47:31.491Z,97.59
2019-02-05T18:52:50.047Z,97.84
2019-02-05T18:58:10.457Z,97.99
2019-02-05T19:03:29.455Z,98.37
2019-02-05T19:08:48.084Z,98.94
2019-02-05T19:14:06.769Z,99.16
2019-02-05T19:19:25.406Z,99.44
2019-02-05T19:24:45.582Z,99.18
2019-02-05T19:30:10.131Z,99.40
2019-02-05T19:35:28.674Z,99.34
2019-02-05T19:40:57.076Z,99.35
2019-02-05T19:46:25.644Z,99.37
2019-02-05T19:51:44.348Z,99.61
2019-02-05T19:57:03.171Z,99.55
2019-02-05T20:02:21.798Z,99.69
2019-02-05T20:07:40.348Z,99.93
2019-02-05T20:12:59.155Z,100.00
2019-02-05T20:18:20.545Z,100.00
2019-02-05T20:23:39.177Z,100.00
2019-02-05T20:28:57.793Z,100.00
2019-02-05T20:34:21.913Z,100.00
2019-02-05T20:39:54.679Z,100.00
2019-02-05T20:50:30.956Z,100.00
2019-02-05T20:56:00.090Z,100.00
2019-02-05T21:01:18.761Z,100.00
2019-02-05T21:06:38.907Z,100.00
2019-02-05T21:11:59.218Z,100.00
2019-02-05T21:17:25.765Z,100.00
2019-02-05T21:22:44.410Z,100.00
2019-02-05T21:28:03.045Z,100.00
2019-02-05T21:33:23.166Z,100.00
2019-02-05T21:38:41.780Z,100.00
2019-02-05T21:44:00.288Z,100.00
2019-02-05T21:49:18.905Z,100.00
2019-02-05T21:54:38.604Z,100.00
2019-02-05T21:59:57.534Z,100.00
2019-02-05T22:05:16.679Z,100.00
2019-02-05T22:10:35.387Z,100.00
2019-02-05T22:15:54.011Z,100.00
2019-02-05T22:21:13.655Z,100.00
2019-02-05T22:26:32.697Z,100.00
2019-02-05T22:31:51.617Z,100.00
2019-02-05T22:37:10.512Z,100.00
2019-02-05T22:42:30.066Z,99.69
2019-02-05T22:47:49.205Z,99.16
2019-02-05T22:53:10.007Z,98.89
2019-02-05T22:58:28.631Z,99.07
2019-02-05T23:03:50.416Z,99.68
2019-02-05T23:09:17.960Z,100.00
2019-02-05T23:14:36.586Z,100.00
2019-02-05T23:19:55.391Z,100.00
2019-02-05T23:25:14.009Z,100.00
2019-02-05T23:30:32.636Z,100.00
2019-02-05T23:35:52.071Z,99.29
2019-02-05T23:41:10.691Z,98.74
2019-02-05T23:46:29.255Z,98.37
2019-02-05T23:51:47.884Z,96.93
2019-02-05T23:57:06.594Z,96.39
